Time;durP1;ratioP1;P1;durP2;ratioP2;P2;SDS_P1;SDS_P2;PMS_P1;PMS_P2;Temp;Humidity;BMP_temperature;BMP_pressure;BME280_temperature;BME280_humidity;BME280_pressure;Samples;Min_cycle;Max_cycle;Signal;HPM_P1;HPM_P2
2024/01/21 00:00:17;;;;;;;2.57;1.33;;;1.70;79.60;;;;;;5038794;28;20487;-82
2024/01/21 00:02:45;;;;;;;4.17;1.40;;;1.80;73.00;;;;;;5047603;28;20966;-82
2024/01/21 00:05:12;;;;;;;2.87;1.27;;;1.80;72.40;;;;;;5058637;28;21000;-81
2024/01/21 00:07:39;;;;;;;2.80;1.50;;;1.80;77.60;;;;;;5058484;28;20455;-82
2024/01/21 00:10:08;;;;;;;3.27;1.60;;;1.80;79.30;;;;;;5054397;28;20490;-82
2024/01/21 00:12:35;;;;;;;2.83;1.63;;;1.80;81.90;;;;;;5039868;28;20449;-80
2024/01/21 00:15:06;;;;;;;3.80;2.03;;;1.80;77.10;;;;;;5051178;28;20454;-81
2024/01/21 00:17:33;;;;;;;2.60;1.30;;;1.90;78.50;;;;;;5043392;28;20492;-81
2024/01/21 00:20:01;;;;;;;2.60;1.80;;;1.90;76.50;;;;;;5039170;28;20480;-82
2024/01/21 00:22:28;;;;;;;2.33;1.40;;;2.00;71.70;;;;;;5057582;28;20538;-83
2024/01/21 00:24:55;;;;;;;3.70;1.37;;;2.10;72.60;;;;;;5048846;28;20466;-81
2024/01/21 00:27:22;;;;;;;2.30;1.47;;;2.20;72.10;;;;;;5050321;28;20475;-82
2024/01/21 00:29:49;;;;;;;3.50;1.83;;;2.30;70.40;;;;;;5048887;28;20462;-81
2024/01/21 00:32:16;;;;;;;3.30;1.90;;;2.40;68.00;;;;;;5049974;28;20452;-84
2024/01/21 00:34:43;;;;;;;2.87;1.50;;;2.50;66.80;;;;;;5042380;28;20467;-82
2024/01/21 00:37:13;;;;;;;4.23;1.90;;;2.50;69.50;;;;;;5042216;28;20486;-82
2024/01/21 00:39:40;;;;;;;4.57;2.03;;;2.50;70.60;;;;;;5048076;28;20439;-82
2024/01/21 00:42:06;;;;;;;6.10;2.00;;;2.50;68.30;;;;;;5050387;28;20455;-82
2024/01/21 00:44:33;;;;;;;5.80;1.60;;;2.60;67.50;;;;;;5039346;28;20430;-83
2024/01/21 00:47:00;;;;;;;3.30;2.03;;;2.60;67.90;;;;;;5040501;28;20568;-82
2024/01/21 00:49:27;;;;;;;3.47;1.43;;;2.60;68.20;;;;;;5048645;28;20491;-84
2024/01/21 00:51:54;;;;;;;3.70;1.67;;;2.70;67.10;;;;;;5040312;28;20448;-82
2024/01/21 00:54:22;;;;;;;8.40;1.80;;;2.70;66.90;;;;;;5037703;28;20830;-82
2024/01/21 00:56:49;;;;;;;2.67;1.50;;;2.70;69.90;;;;;;5036536;28;20563;-83
2024/01/21 00:59:16;;;;;;;4.83;2.13;;;2.70;67.00;;;;;;5045033;28;20497;-84
2024/01/21 01:01:43;;;;;;;5.80;2.10;;;2.80;65.30;;;;;;5039162;28;20487;-83
2024/01/21 01:04:10;;;;;;;3.40;1.57;;;2.80;67.70;;;;;;5047561;28;20960;-83
2024/01/21 01:06:37;;;;;;;4.57;2.13;;;2.80;67.40;;;;;;5058879;28;20493;-83
2024/01/21 01:09:06;;;;;;;9.77;4.47;;;2.70;68.20;;;;;;5046192;28;20507;-82
2024/01/21 01:11:34;;;;;;;6.50;3.53;;;2.70;67.00;;;;;;5050420;28;20460;-83
2024/01/21 01:14:01;;;;;;;4.20;2.27;;;2.70;67.10;;;;;;5047477;28;20460;-82
2024/01/21 01:16:27;;;;;;;4.60;2.33;;;2.70;67.00;;;;;;5044482;28;20512;-82
2024/01/21 01:18:54;;;;;;;7.30;2.03;;;2.70;66.60;;;;;;5055242;28;20419;-82
2024/01/21 01:21:21;;;;;;;4.40;2.50;;;2.70;65.50;;;;;;5047431;28;20990;-80
2024/01/21 01:23:48;;;;;;;3.70;2.67;;;2.70;65.90;;;;;;5050123;28;20454;-80
2024/01/21 01:26:14;;;;;;;4.23;2.20;;;2.70;67.10;;;;;;5050179;28;20475;-81
2024/01/21 01:28:43;;;;;;;3.83;2.10;;;2.70;65.40;;;;;;5054036;28;20952;-82
2024/01/21 01:31:09;;;;;;;4.00;2.10;;;2.70;66.40;;;;;;5045499;28;20453;-82
2024/01/21 01:33:36;;;;;;;5.17;3.13;;;2.80;65.90;;;;;;5045146;28;20961;-80
2024/01/21 01:36:03;;;;;;;5.00;2.10;;;2.80;65.70;;;;;;5049297;28;20856;-82
2024/01/21 01:38:30;;;;;;;4.47;2.87;;;2.80;67.20;;;;;;5049373;28;20448;-82
2024/01/21 01:40:57;;;;;;;5.37;2.80;;;2.80;65.90;;;;;;5041801;28;20459;-82
2024/01/21 01:43:24;;;;;;;4.17;3.00;;;2.80;66.30;;;;;;5043601;28;20458;-81
2024/01/21 01:45:52;;;;;;;4.37;2.30;;;2.80;65.70;;;;;;5046992;28;20437;-81
2024/01/21 01:48:20;;;;;;;4.20;2.90;;;2.80;65.40;;;;;;5042725;28;20434;-82
2024/01/21 01:50:47;;;;;;;6.40;3.00;;;2.70;67.40;;;;;;5049395;28;20574;-81
2024/01/21 01:53:15;;;;;;;4.43;2.40;;;2.60;66.30;;;;;;5045447;28;20517;-81
2024/01/21 01:55:43;;;;;;;4.70;2.90;;;2.60;66.50;;;;;;5053971;28;20543;-81
2024/01/21 01:58:10;;;;;;;4.40;2.33;;;2.60;65.80;;;;;;5053931;28;20426;-81
2024/01/21 02:00:37;;;;;;;4.30;2.73;;;2.50;67.20;;;;;;5041729;28;20632;-83
2024/01/21 02:03:06;;;;;;;4.87;2.60;;;2.60;66.60;;;;;;5054417;28;20451;-81
2024/01/21 02:05:33;;;;;;;4.20;2.30;;;2.60;66.30;;;;;;5039709;28;20539;-82
2024/01/21 02:07:59;;;;;;;3.87;2.30;;;2.60;65.90;;;;;;5043862;28;20560;-80
2024/01/21 02:10:28;;;;;;;3.30;2.00;;;2.60;67.60;;;;;;5046004;28;20578;-83
2024/01/21 02:12:55;;;;;;;3.40;2.53;;;2.60;68.20;;;;;;5046642;28;20467;-84
2024/01/21 02:15:22;;;;;;;3.43;2.13;;;2.60;69.40;;;;;;5042022;28;20459;-82
2024/01/21 02:17:49;;;;;;;4.97;2.67;;;2.50;68.80;;;;;;5039767;28;20481;-81
2024/01/21 02:20:17;;;;;;;4.20;2.53;;;2.60;67.60;;;;;;5042980;28;20468;-81
2024/01/21 02:22:44;;;;;;;6.53;3.17;;;2.50;70.00;;;;;;5034952;28;20544;-82
2024/01/21 02:25:12;;;;;;;4.60;2.80;;;2.50;66.80;;;;;;5044389;28;20449;-83
2024/01/21 02:27:39;;;;;;;3.60;1.70;;;2.60;65.70;;;;;;5050289;28;20850;-82
2024/01/21 02:30:07;;;;;;;5.53;2.70;;;2.60;66.30;;;;;;5047256;28;20526;-82
2024/01/21 02:32:34;;;;;;;5.13;2.40;;;2.70;66.80;;;;;;5046880;28;20477;-82
2024/01/21 02:35:01;;;;;;;4.33;2.57;;;2.70;67.00;;;;;;5046243;28;20523;-84
2024/01/21 02:37:28;;;;;;;5.20;2.40;;;2.70;67.80;;;;;;5046591;28;20471;-82
2024/01/21 02:39:55;;;;;;;5.63;3.70;;;2.70;67.50;;;;;;5054117;28;20450;-82
2024/01/21 02:42:23;;;;;;;3.50;2.40;;;2.70;66.90;;;;;;5046775;28;20452;-82
2024/01/21 02:44:50;;;;;;;4.57;3.17;;;2.70;68.20;;;;;;5051767;28;20521;-84
2024/01/21 02:47:17;;;;;;;5.50;2.53;;;2.70;67.50;;;;;;5043773;28;20479;-83
2024/01/21 02:49:44;;;;;;;5.20;2.93;;;2.70;68.90;;;;;;5059011;28;20598;-83
2024/01/21 02:52:11;;;;;;;4.70;2.97;;;2.70;67.40;;;;;;5059772;28;20444;-83
2024/01/21 02:54:37;;;;;;;5.40;2.83;;;2.70;67.40;;;;;;5053120;28;20453;-84
2024/01/21 02:57:04;;;;;;;4.20;2.67;;;2.80;68.00;;;;;;5049536;28;20479;-82
2024/01/21 02:59:33;;;;;;;6.30;3.43;;;2.90;67.00;;;;;;5051311;28;20811;-83
2024/01/21 03:01:59;;;;;;;4.47;2.73;;;2.90;67.10;;;;;;5041850;28;20552;-82
2024/01/21 03:04:26;;;;;;;4.57;3.47;;;2.80;69.40;;;;;;5043173;28;20964;-82
2024/01/21 03:06:53;;;;;;;6.10;2.90;;;2.80;68.70;;;;;;5049907;28;20473;-83
2024/01/21 03:09:20;;;;;;;3.80;2.50;;;2.80;68.90;;;;;;5050596;28;20456;-83
2024/01/21 03:11:47;;;;;;;7.27;3.20;;;2.80;69.20;;;;;;5059554;28;20540;-83
2024/01/21 03:14:13;;;;;;;4.40;3.13;;;2.80;66.80;;;;;;5058758;28;20451;-82
2024/01/21 03:16:41;;;;;;;4.43;2.47;;;2.80;68.20;;;;;;5048779;28;20870;-81
2024/01/21 03:19:08;;;;;;;3.67;2.10;;;2.80;66.80;;;;;;5059897;28;20456;-84
2024/01/21 03:21:35;;;;;;;6.47;2.67;;;2.90;66.80;;;;;;5050092;28;21044;-81
2024/01/21 03:24:02;;;;;;;3.03;2.40;;;2.80;69.50;;;;;;5049987;28;20539;-83
2024/01/21 03:26:29;;;;;;;4.07;2.70;;;2.80;67.00;;;;;;5054016;28;20484;-84
2024/01/21 03:28:56;;;;;;;5.23;2.60;;;2.80;66.80;;;;;;5048822;28;20467;-82
2024/01/21 03:31:23;;;;;;;6.23;3.00;;;2.80;68.00;;;;;;5046455;28;20962;-82
2024/01/21 03:33:51;;;;;;;6.60;3.00;;;2.70;68.20;;;;;;5046849;28;20448;-84
2024/01/21 03:36:18;;;;;;;8.47;3.20;;;2.70;68.10;;;;;;5046376;28;20985;-82
2024/01/21 03:38:46;;;;;;;6.23;3.40;;;2.70;67.30;;;;;;5046689;28;20457;-82
2024/01/21 03:41:13;;;;;;;6.00;3.33;;;2.70;68.10;;;;;;5058989;28;20584;-83
2024/01/21 03:43:40;;;;;;;5.00;2.50;;;2.60;68.10;;;;;;5050117;28;20467;-83
2024/01/21 03:46:07;;;;;;;4.30;3.10;;;2.60;69.10;;;;;;5058350;28;20478;-82
2024/01/21 03:48:34;;;;;;;8.00;3.30;;;2.60;67.40;;;;;;5051753;28;20479;-82
2024/01/21 03:51:03;;;;;;;7.33;3.20;;;2.60;68.40;;;;;;5046616;28;20463;-82
2024/01/21 03:53:30;;;;;;;6.17;2.67;;;2.50;69.90;;;;;;5038669;28;20871;-82
2024/01/21 03:55:57;;;;;;;4.07;2.33;;;2.50;69.00;;;;;;5056119;28;20471;-84
2024/01/21 03:58:23;;;;;;;4.93;2.73;;;2.50;68.50;;;;;;5057521;28;20555;-83
2024/01/21 04:00:50;;;;;;;7.53;4.50;;;2.50;68.60;;;;;;5051429;28;20884;-83
2024/01/21 04:03:17;;;;;;;3.83;2.77;;;2.40;68.30;;;;;;5050432;28;20462;-85
2024/01/21 04:05:44;;;;;;;6.40;3.17;;;2.40;68.90;;;;;;5056794;28;20449;-84
2024/01/21 04:08:12;;;;;;;5.80;2.90;;;2.40;69.30;;;;;;5046211;28;20467;-82
2024/01/21 04:10:40;;;;;;;5.53;3.43;;;2.30;69.10;;;;;;5046243;28;20485;-83
2024/01/21 04:13:07;;;;;;;5.77;3.00;;;2.30;69.60;;;;;;5057498;28;20459;-83
2024/01/21 04:15:34;;;;;;;5.13;3.30;;;2.20;70.00;;;;;;5043733;28;20524;-83
2024/01/21 04:18:01;;;;;;;5.83;2.93;;;2.20;71.10;;;;;;5047667;28;20483;-84
2024/01/21 04:20:28;;;;;;;4.93;2.90;;;2.20;70.00;;;;;;5057643;28;20460;-81
2024/01/21 04:22:55;;;;;;;4.63;2.27;;;2.20;70.00;;;;;;5048368;28;20982;-83
2024/01/21 04:25:23;;;;;;;4.57;3.03;;;2.20;70.20;;;;;;5056425;28;20435;-82
2024/01/21 04:27:49;;;;;;;8.43;3.63;;;2.20;69.10;;;;;;5048717;28;20464;-82
2024/01/21 04:30:17;;;;;;;4.00;2.53;;;2.20;69.10;;;;;;5044494;28;20485;-83
2024/01/21 04:32:43;;;;;;;5.63;3.10;;;2.30;68.80;;;;;;5052689;28;20634;-84
2024/01/21 04:35:10;;;;;;;6.83;2.90;;;2.30;68.80;;;;;;5056601;28;20464;-81
2024/01/21 04:37:37;;;;;;;5.27;2.90;;;2.30;69.20;;;;;;5056311;28;20564;-82
2024/01/21 04:40:05;;;;;;;5.50;3.30;;;2.20;70.00;;;;;;5054497;28;20450;-83
2024/01/21 04:42:33;;;;;;;4.80;2.47;;;2.20;70.80;;;;;;5045044;28;20810;-82
2024/01/21 04:45:00;;;;;;;4.80;2.93;;;2.30;68.50;;;;;;5046026;28;20548;-82
2024/01/21 04:47:27;;;;;;;4.47;2.83;;;2.30;70.70;;;;;;5042925;28;20913;-82
2024/01/21 04:49:53;;;;;;;5.47;2.70;;;2.40;68.60;;;;;;5053091;28;20458;-85
2024/01/21 04:52:21;;;;;;;4.40;2.73;;;2.40;69.10;;;;;;5048426;28;20464;-84
2024/01/21 04:54:47;;;;;;;5.70;2.97;;;2.40;68.40;;;;;;5057750;28;20536;-83
2024/01/21 04:57:14;;;;;;;3.40;2.33;;;2.50;67.40;;;;;;5065820;28;20547;-82
2024/01/21 04:59:42;;;;;;;5.00;2.60;;;2.50;67.60;;;;;;5064414;28;20456;-83
2024/01/21 05:02:09;;;;;;;5.30;2.80;;;2.50;67.70;;;;;;5059912;28;20456;-83
2024/01/21 05:04:36;;;;;;;3.33;2.40;;;2.50;67.80;;;;;;5061609;28;20539;-83
2024/01/21 05:07:03;;;;;;;4.63;2.50;;;2.50;67.80;;;;;;5057398;28;20544;-83
2024/01/21 05:09:30;;;;;;;5.50;2.80;;;2.60;67.40;;;;;;5054099;28;20459;-83
2024/01/21 05:11:56;;;;;;;7.77;3.00;;;2.60;67.40;;;;;;5068970;28;20483;-83
2024/01/21 05:14:23;;;;;;;2.80;1.97;;;2.60;66.60;;;;;;5068419;28;20527;-81
2024/01/21 05:16:51;;;;;;;6.20;2.50;;;2.70;66.60;;;;;;5053894;28;20575;-84
2024/01/21 05:19:18;;;;;;;5.30;3.27;;;2.70;66.50;;;;;;5065884;28;20563;-81
2024/01/21 05:21:45;;;;;;;5.03;2.57;;;2.70;67.40;;;;;;5051660;28;20468;-84
2024/01/21 05:24:12;;;;;;;3.60;2.37;;;2.70;66.50;;;;;;5060942;28;20463;-81
2024/01/21 05:26:44;;;;;;;5.60;2.80;;;2.80;65.90;;;;;;5060125;28;20500;-84
2024/01/21 05:29:10;;;;;;;5.87;2.43;;;2.80;66.40;;;;;;5042347;28;20511;-83
2024/01/21 05:31:37;;;;;;;4.67;2.50;;;2.70;66.70;;;;;;5056430;28;20494;-83
2024/01/21 05:34:05;;;;;;;4.67;2.73;;;2.70;66.50;;;;;;5054885;28;20486;-83
2024/01/21 05:36:32;;;;;;;3.90;2.03;;;2.80;66.90;;;;;;5044243;28;20461;-83
2024/01/21 05:38:59;;;;;;;5.07;2.60;;;2.70;66.90;;;;;;5057226;28;20456;-83
2024/01/21 05:41:28;;;;;;;5.17;2.40;;;2.70;66.30;;;;;;5056552;28;20467;-83
2024/01/21 05:43:55;;;;;;;5.30;2.73;;;2.80;66.60;;;;;;5047638;28;20448;-84
2024/01/21 05:46:22;;;;;;;4.63;2.53;;;2.80;67.10;;;;;;5045849;28;20994;-82
2024/01/21 05:48:49;;;;;;;3.27;2.33;;;2.70;68.10;;;;;;5047687;28;20467;-86
2024/01/21 05:51:17;;;;;;;5.47;3.03;;;2.70;67.50;;;;;;5054658;28;21171;-83
2024/01/21 05:53:44;;;;;;;4.80;3.17;;;2.60;67.80;;;;;;5055495;28;20453;-83
2024/01/21 05:56:11;;;;;;;4.20;3.00;;;2.60;69.00;;;;;;5043988;28;20575;-82
2024/01/21 05:58:38;;;;;;;4.80;2.97;;;2.60;67.40;;;;;;5043870;28;20454;-84
2024/01/21 06:01:05;;;;;;;4.50;2.33;;;2.60;67.40;;;;;;5052134;28;20515;-84
2024/01/21 06:03:32;;;;;;;4.77;2.83;;;2.70;67.50;;;;;;5050697;28;20550;-83
2024/01/21 06:05:59;;;;;;;4.60;2.93;;;2.60;67.70;;;;;;5054825;28;20460;-83
2024/01/21 06:08:28;;;;;;;5.90;3.00;;;2.60;68.20;;;;;;5056038;28;21031;-83
2024/01/21 06:10:55;;;;;;;4.17;2.53;;;2.70;67.90;;;;;;5058592;28;20522;-84
2024/01/21 06:13:21;;;;;;;4.53;2.70;;;2.70;67.60;;;;;;5062300;28;20461;-82
2024/01/21 06:15:48;;;;;;;3.40;2.50;;;2.70;67.70;;;;;;5047756;28;20460;-84
2024/01/21 06:18:15;;;;;;;3.97;2.33;;;2.70;68.20;;;;;;5049909;28;20542;-85
2024/01/21 06:20:42;;;;;;;6.93;2.73;;;2.70;69.80;;;;;;5054782;28;20873;-85
2024/01/21 06:23:08;;;;;;;5.40;2.60;;;2.60;69.10;;;;;;5050807;28;20461;-83
2024/01/21 06:25:37;;;;;;;5.23;2.57;;;2.70;69.10;;;;;;5059355;28;20463;-81
2024/01/21 06:28:04;;;;;;;4.67;2.70;;;2.70;68.70;;;;;;5045045;28;20848;-83
2024/01/21 06:30:31;;;;;;;5.40;3.00;;;2.70;69.30;;;;;;5047789;28;20492;-84
2024/01/21 06:32:58;;;;;;;4.27;3.10;;;2.70;70.60;;;;;;5056883;28;20456;-83
2024/01/21 06:35:26;;;;;;;6.30;3.43;;;2.60;70.30;;;;;;5059841;28;20459;-82
2024/01/21 06:37:53;;;;;;;5.30;2.60;;;2.60;69.40;;;;;;5051548;28;20498;-83
2024/01/21 06:40:20;;;;;;;3.47;2.10;;;2.60;69.40;;;;;;5053674;28;20535;-83
2024/01/21 06:42:48;;;;;;;3.67;2.23;;;2.60;69.60;;;;;;5052726;28;20496;-83
2024/01/21 06:45:15;;;;;;;3.50;2.53;;;2.60;70.20;;;;;;5046376;28;20983;-84
2024/01/21 06:47:42;;;;;;;4.30;2.50;;;2.60;70.50;;;;;;5044680;28;20475;-83
2024/01/21 06:50:10;;;;;;;4.70;2.30;;;2.70;70.30;;;;;;5044501;28;20947;-83
2024/01/21 06:52:37;;;;;;;5.87;2.80;;;2.70;71.80;;;;;;5045755;28;20505;-83
2024/01/21 06:55:04;;;;;;;5.53;3.30;;;2.70;72.50;;;;;;5043157;28;20524;-83
2024/01/21 06:57:31;;;;;;;6.27;2.60;;;2.70;71.70;;;;;;5061148;28;20488;-83
2024/01/21 06:59:59;;;;;;;5.77;3.63;;;2.70;71.80;;;;;;5060890;28;20460;-83
2024/01/21 07:02:26;;;;;;;4.33;3.03;;;2.80;71.50;;;;;;5061624;28;20552;-82
2024/01/21 07:04:53;;;;;;;5.13;3.27;;;2.80;72.40;;;;;;5057511;28;20433;-82
2024/01/21 07:07:19;;;;;;;5.27;3.10;;;2.80;72.30;;;;;;5058611;28;20868;-84
2024/01/21 07:09:45;;;;;;;8.63;3.83;;;2.70;72.90;;;;;;5050560;28;20536;-81
2024/01/21 07:12:13;;;;;;;4.33;2.93;;;2.70;74.20;;;;;;5054470;28;20304;-82
2024/01/21 07:14:40;;;;;;;10.40;3.43;;;2.70;73.50;;;;;;5058201;28;20462;-84
2024/01/21 07:17:08;;;;;;;6.93;3.90;;;2.70;73.00;;;;;;5061219;28;20500;-83
2024/01/21 07:19:35;;;;;;;7.97;4.50;;;2.70;73.70;;;;;;5055853;28;20460;-80
2024/01/21 07:22:02;;;;;;;6.03;3.47;;;2.70;74.20;;;;;;5071852;28;20487;-82
2024/01/21 07:24:28;;;;;;;5.97;3.57;;;2.80;74.10;;;;;;5073791;28;20524;-81
2024/01/21 07:26:55;;;;;;;5.10;3.33;;;2.80;74.20;;;;;;5073573;28;20502;-82
2024/01/21 07:29:22;;;;;;;6.33;3.53;;;2.80;74.60;;;;;;5061845;28;20526;-83
2024/01/21 07:31:49;;;;;;;6.60;3.93;;;2.80;74.60;;;;;;5041791;28;21141;-83
2024/01/21 07:34:17;;;;;;;6.30;4.20;;;2.90;75.20;;;;;;5053956;28;20927;-83
2024/01/21 07:36:44;;;;;;;4.73;3.40;;;2.90;75.70;;;;;;5060555;28;20476;-83
2024/01/21 07:39:11;;;;;;;6.10;4.23;;;2.90;75.20;;;;;;5061125;28;20471;-83
2024/01/21 07:41:38;;;;;;;8.50;3.20;;;2.90;75.30;;;;;;5061643;28;20964;-82
2024/01/21 07:44:05;;;;;;;7.70;4.80;;;2.90;75.50;;;;;;5060453;28;20553;-82
2024/01/21 07:46:32;;;;;;;6.90;3.50;;;2.90;74.60;;;;;;5049443;28;21070;-83
2024/01/21 07:48:58;;;;;;;7.00;4.07;;;3.00;74.60;;;;;;5053975;28;20446;-82
2024/01/21 07:51:26;;;;;;;4.50;3.00;;;3.00;74.80;;;;;;5056180;28;20576;-82
2024/01/21 07:53:53;;;;;;;6.60;3.90;;;3.10;74.20;;;;;;5048235;28;20208;-82
2024/01/21 07:56:20;;;;;;;4.23;3.00;;;3.10;74.20;;;;;;5040317;28;20496;-83
2024/01/21 07:58:46;;;;;;;5.90;3.70;;;3.10;74.10;;;;;;5040850;28;20459;-83
2024/01/21 08:01:14;;;;;;;7.60;3.73;;;3.10;73.60;;;;;;5060226;28;21017;-84
2024/01/21 08:03:41;;;;;;;6.00;3.43;;;3.20;72.80;;;;;;5057483;28;20463;-81
2024/01/21 08:06:08;;;;;;;6.30;3.80;;;3.30;73.20;;;;;;5057903;28;20554;-83
2024/01/21 08:08:37;;;;;;;7.53;3.70;;;3.30;72.10;;;;;;5062481;28;20452;-81
2024/01/21 08:11:04;;;;;;;6.20;3.37;;;3.30;73.20;;;;;;5058744;28;20852;-80
2024/01/21 08:13:31;;;;;;;5.10;3.07;;;3.30;74.00;;;;;;5046361;28;20547;-82
2024/01/21 08:15:58;;;;;;;6.20;3.80;;;3.30;74.90;;;;;;5054279;28;20567;-82
2024/01/21 08:18:25;;;;;;;7.47;4.43;;;3.40;73.60;;;;;;5051346;28;20553;-81
2024/01/21 08:20:52;;;;;;;6.27;3.13;;;3.40;73.10;;;;;;5051338;28;20515;-83
2024/01/21 08:23:20;;;;;;;6.90;4.57;;;3.50;72.80;;;;;;5065038;28;20491;-81
2024/01/21 08:25:48;;;;;;;6.57;3.57;;;3.50;71.70;;;;;;5056265;28;20456;-83
2024/01/21 08:28:15;;;;;;;5.40;3.63;;;3.50;71.80;;;;;;5049900;28;20485;-83
2024/01/21 08:30:41;;;;;;;7.67;4.70;;;3.40;72.40;;;;;;5053942;28;20491;-81
2024/01/21 08:33:09;;;;;;;7.83;3.57;;;3.50;72.10;;;;;;5051629;28;20482;-81
2024/01/21 08:35:36;;;;;;;5.50;3.60;;;3.50;72.10;;;;;;5062071;28;20461;-82
2024/01/21 08:38:02;;;;;;;8.00;4.80;;;3.50;72.10;;;;;;5061421;28;20544;-81
2024/01/21 08:40:29;;;;;;;6.40;3.67;;;3.60;71.30;;;;;;5055607;28;20516;-82
2024/01/21 08:42:57;;;;;;;5.30;3.20;;;3.60;73.40;;;;;;5043249;28;20513;-81
2024/01/21 08:45:24;;;;;;;7.27;4.03;;;3.70;71.80;;;;;;5051083;28;20519;-81
2024/01/21 08:47:51;;;;;;;7.23;4.40;;;3.70;70.90;;;;;;5053436;28;20573;-83
2024/01/21 08:50:18;;;;;;;5.20;4.13;;;3.70;71.90;;;;;;5053095;28;20963;-81
2024/01/21 08:52:45;;;;;;;11.77;4.70;;;3.80;71.40;;;;;;5048468;28;20495;-81
2024/01/21 08:55:11;;;;;;;5.33;4.23;;;3.80;70.60;;;;;;5049795;28;21038;-82
2024/01/21 08:57:39;;;;;;;5.77;3.50;;;3.90;70.00;;;;;;5044504;28;20486;-78
2024/01/21 09:00:10;;;;;;;6.90;4.23;;;3.90;70.60;;;;;;5056413;28;20440;-79
2024/01/21 09:02:36;;;;;;;5.30;3.53;;;3.90;70.90;;;;;;5039345;28;20472;-79
2024/01/21 09:05:04;;;;;;;6.83;4.10;;;3.90;71.60;;;;;;5051216;28;20461;-79
2024/01/21 09:07:30;;;;;;;6.70;3.77;;;3.90;71.30;;;;;;5061284;28;20902;-82
2024/01/21 09:09:57;;;;;;;8.10;4.07;;;3.90;71.40;;;;;;5064430;28;20454;-79
2024/01/21 09:12:24;;;;;;;8.90;4.50;;;3.90;72.80;;;;;;5064778;28;20513;-81
2024/01/21 09:14:51;;;;;;;7.27;4.30;;;4.00;72.10;;;;;;5062986;28;20551;-81
2024/01/21 09:17:19;;;;;;;7.80;4.20;;;4.20;72.60;;;;;;5064551;28;20472;-82
2024/01/21 09:19:46;;;;;;;7.00;4.13;;;4.30;72.30;;;;;;5057442;28;20461;-81
2024/01/21 09:22:13;;;;;;;5.40;3.60;;;4.30;73.60;;;;;;5065788;28;20481;-83
2024/01/21 09:24:39;;;;;;;6.20;4.33;;;4.50;72.20;;;;;;5061197;28;20524;-80
2024/01/21 09:27:06;;;;;;;6.90;4.07;;;4.60;72.40;;;;;;5062677;28;20510;-82
2024/01/21 09:29:33;;;;;;;6.80;3.83;;;4.60;72.20;;;;;;5060016;28;20508;-80
2024/01/21 09:32:00;;;;;;;5.50;3.90;;;4.60;72.10;;;;;;5057689;28;20563;-80
2024/01/21 09:34:28;;;;;;;6.40;4.10;;;4.70;73.10;;;;;;5060019;28;20471;-83
2024/01/21 09:36:55;;;;;;;5.93;3.30;;;4.80;71.60;;;;;;5054840;28;20490;-82
2024/01/21 09:39:22;;;;;;;6.87;4.47;;;4.90;70.30;;;;;;5044116;28;20466;-81
2024/01/21 09:41:50;;;;;;;8.97;5.30;;;5.30;70.80;;;;;;5046239;28;20531;-81
2024/01/21 09:44:19;;;;;;;8.03;4.63;;;5.30;69.60;;;;;;5056075;28;20442;-83
2024/01/21 09:46:52;;;;;;;9.30;5.20;;;5.20;69.10;;;;;;5062007;28;20580;-82
2024/01/21 09:49:19;;;;;;;11.70;6.63;;;5.20;69.30;;;;;;5065055;28;20457;-81
2024/01/21 09:51:49;;;;;;;7.83;4.43;;;5.00;70.50;;;;;;5065184;28;21096;-81
2024/01/21 09:54:15;;;;;;;7.07;5.10;;;5.00;70.90;;;;;;5064521;28;20553;-82
2024/01/21 09:56:43;;;;;;;7.53;4.77;;;5.10;70.80;;;;;;5049423;28;20580;-81
2024/01/21 09:59:10;;;;;;;6.93;4.47;;;5.00;71.00;;;;;;5045713;28;20441;-83
2024/01/21 10:01:37;;;;;;;6.80;5.03;;;4.90;72.20;;;;;;5056539;28;20519;-82
2024/01/21 10:04:05;;;;;;;7.57;5.13;;;4.90;73.80;;;;;;5064964;28;20438;-83
2024/01/21 10:06:32;;;;;;;6.80;4.97;;;4.80;75.10;;;;;;5064305;28;20633;-83
2024/01/21 10:09:13;;;;;;;6.77;4.63;;;4.80;75.50;;;;;;5062103;28;20454;-81
2024/01/21 10:11:40;;;;;;;6.43;4.23;;;4.80;76.00;;;;;;5056293;28;20516;-82
2024/01/21 10:14:07;;;;;;;7.37;4.83;;;4.80;75.40;;;;;;5062730;28;20454;-83
2024/01/21 10:16:36;;;;;;;6.47;4.17;;;4.80;76.40;;;;;;5054506;28;20550;-80
2024/01/21 10:19:04;;;;;;;9.60;5.70;;;4.80;77.30;;;;;;5052352;28;21009;-80
2024/01/21 10:21:31;;;;;;;6.30;4.57;;;5.00;77.80;;;;;;5054089;28;20480;-82
2024/01/21 10:23:58;;;;;;;9.53;4.70;;;5.30;77.80;;;;;;5056394;28;20516;-82
2024/01/21 10:26:26;;;;;;;6.50;4.10;;;5.30;77.80;;;;;;5057633;28;20541;-82
2024/01/21 10:28:52;;;;;;;7.07;5.03;;;5.50;79.20;;;;;;5063638;28;20479;-83
2024/01/21 10:31:19;;;;;;;8.07;4.50;;;5.60;78.70;;;;;;5064810;28;20450;-82
2024/01/21 10:33:47;;;;;;;6.20;4.07;;;5.60;79.10;;;;;;5065264;28;20519;-81
2024/01/21 10:36:15;;;;;;;6.67;4.20;;;5.50;80.40;;;;;;5052245;28;20532;-83
2024/01/21 10:38:49;;;;;;;5.67;4.30;;;5.50;81.20;;;;;;5055494;28;20483;-81
2024/01/21 10:41:25;;;;;;;6.47;4.23;;;5.50;82.00;;;;;;5059812;28;20974;-81
2024/01/21 10:43:55;;;;;;;5.53;4.13;;;5.60;82.50;;;;;;5063522;28;20481;-81
2024/01/21 10:46:25;;;;;;;5.63;4.03;;;5.50;83.80;;;;;;5065458;28;20483;-82
2024/01/21 10:48:55;;;;;;;7.10;4.57;;;5.50;84.70;;;;;;5066762;28;20451;-81
2024/01/21 10:51:22;;;;;;;6.30;3.47;;;5.30;87.20;;;;;;5066649;28;20451;-80
2024/01/21 10:53:51;;;;;;;6.43;3.93;;;5.30;90.00;;;;;;5060889;28;20542;-82
2024/01/21 10:56:18;;;;;;;6.40;4.87;;;5.30;90.50;;;;;;5054641;28;20518;-82
2024/01/21 10:58:45;;;;;;;10.00;4.03;;;5.30;91.00;;;;;;5051817;28;20506;-81
2024/01/21 11:01:15;;;;;;;6.50;4.43;;;5.40;91.30;;;;;;5057826;28;20559;-79
2024/01/21 11:03:43;;;;;;;8.30;3.93;;;5.40;91.20;;;;;;5057488;28;20539;-79
2024/01/21 11:06:11;;;;;;;6.97;4.27;;;5.50;91.00;;;;;;5058801;28;20503;-80
2024/01/21 11:08:43;;;;;;;7.93;4.77;;;5.50;91.30;;;;;;5058727;28;20533;-79
2024/01/21 11:11:16;;;;;;;7.50;3.73;;;5.40;91.60;;;;;;5062801;28;20433;-80
2024/01/21 11:13:44;;;;;;;6.97;4.43;;;5.40;93.10;;;;;;5059515;28;20485;-81
2024/01/21 11:16:14;;;;;;;7.00;4.33;;;5.50;94.30;;;;;;5059440;28;20471;-81
2024/01/21 11:18:43;;;;;;;7.93;4.53;;;5.60;93.80;;;;;;5070425;28;20451;-81
2024/01/21 11:21:09;;;;;;;7.20;5.00;;;5.80;93.80;;;;;;5067420;28;20443;-79
2024/01/21 11:23:37;;;;;;;7.23;4.87;;;5.90;94.30;;;;;;5059884;28;20518;-81
2024/01/21 11:26:06;;;;;;;6.60;4.53;;;6.10;95.40;;;;;;5062625;28;20477;-79
2024/01/21 11:28:33;;;;;;;5.67;4.13;;;6.00;95.60;;;;;;5055397;28;20448;-82
2024/01/21 11:31:06;;;;;;;7.47;4.50;;;6.10;96.70;;;;;;5062225;28;20958;-79
2024/01/21 11:33:36;;;;;;;6.10;4.60;;;6.20;97.60;;;;;;5062836;28;20549;-80
2024/01/21 11:36:03;;;;;;;7.43;5.00;;;6.00;99.90;;;;;;5056988;28;20477;-80
2024/01/21 11:38:30;;;;;;;9.40;5.20;;;5.90;99.90;;;;;;5062995;28;20527;-79
2024/01/21 11:41:04;;;;;;;6.97;4.60;;;5.90;99.90;;;;;;5062082;28;20444;-81
2024/01/21 11:43:32;;;;;;;6.83;5.17;;;5.80;99.90;;;;;;5060741;28;20462;-80
2024/01/21 11:46:01;;;;;;;7.30;5.00;;;5.70;99.90;;;;;;5054512;28;20454;-80
2024/01/21 11:48:29;;;;;;;8.70;5.23;;;5.40;99.90;;;;;;5062643;28;20451;-78
2024/01/21 11:50:58;;;;;;;9.43;5.20;;;5.30;99.90;;;;;;5059387;28;20901;-79
2024/01/21 11:53:25;;;;;;;7.30;5.07;;;5.10;99.90;;;;;;5060639;28;20505;-79
2024/01/21 11:55:52;;;;;;;8.73;5.43;;;5.10;99.90;;;;;;5050245;28;20541;-80
2024/01/21 11:58:20;;;;;;;9.80;5.53;;;5.10;99.90;;;;;;5049978;28;20441;-79
2024/01/21 12:00:48;;;;;;;8.90;5.00;;;5.20;99.90;;;;;;5049849;28;20485;-80
2024/01/21 12:03:15;;;;;;;12.10;5.60;;;5.30;99.90;;;;;;5061957;28;20519;-79
2024/01/21 12:05:42;;;;;;;8.10;4.73;;;5.30;99.90;;;;;;5050389;28;20457;-80
2024/01/21 12:08:12;;;;;;;7.47;4.47;;;5.30;99.90;;;;;;5056856;28;20457;-78
2024/01/21 12:10:39;;;;;;;8.77;5.20;;;5.30;99.90;;;;;;5058816;28;20443;-79
2024/01/21 12:13:07;;;;;;;7.00;4.77;;;5.40;99.90;;;;;;5060786;28;20486;-80
2024/01/21 12:15:36;;;;;;;7.37;4.90;;;5.40;99.90;;;;;;5056100;28;20461;-82
2024/01/21 12:18:04;;;;;;;8.03;4.23;;;5.10;99.90;;;;;;5062082;28;20852;-79
2024/01/21 12:20:31;;;;;;;9.00;5.13;;;4.90;99.90;;;;;;5057815;28;20488;-78
2024/01/21 12:22:58;;;;;;;8.30;5.13;;;5.20;99.90;;;;;;5060307;28;20452;-78
2024/01/21 12:25:26;;;;;;;7.93;4.63;;;5.30;99.90;;;;;;5056869;28;20455;-80
2024/01/21 12:27:58;;;;;;;7.53;4.80;;;5.30;99.90;;;;;;5060626;28;20476;-81
2024/01/21 12:30:26;;;;;;;8.90;5.10;;;5.50;99.90;;;;;;5059784;28;20452;-81
2024/01/21 12:32:53;;;;;;;7.33;4.87;;;5.60;99.90;;;;;;5052034;28;20494;-79
2024/01/21 12:35:20;;;;;;;7.80;4.70;;;5.60;99.90;;;;;;5053102;28;20461;-79
2024/01/21 12:37:49;;;;;;;6.23;3.67;;;5.60;99.90;;;;;;5061048;28;20475;-80
2024/01/21 12:40:16;;;;;;;7.37;4.43;;;;;;;;;;5071081;28;20463;-80
2024/01/21 12:42:44;;;;;;;9.70;4.53;;;5.40;99.90;;;;;;5063680;28;20544;-81
2024/01/21 12:45:12;;;;;;;6.23;4.60;;;;;;;;;;5064865;28;20464;-80
2024/01/21 12:47:39;;;;;;;8.13;4.60;;;;;;;;;;5066308;28;20557;-81
2024/01/21 12:50:09;;;;;;;7.50;5.03;;;5.20;99.90;;;;;;5062991;28;20522;-82
2024/01/21 12:52:36;;;;;;;10.20;5.27;;;;;;;;;;5059990;28;20501;-80
2024/01/21 12:55:04;;;;;;;8.27;5.03;;;5.30;99.90;;;;;;5056093;28;20494;-80
2024/01/21 12:57:31;;;;;;;6.97;4.30;;;5.00;99.90;;;;;;5053025;28;20664;-81